sensor_id;sensor_type;location;lat;lon;timestamp;pressure;altitude;pressure_sealevel;temperature
27826;BMP280;15077;49.704;9.908;2023-05-17T00:01:52;98550.31;;;14.38
27826;BMP280;15077;49.704;9.908;2023-05-17T00:04:21;98551.38;;;14.34
27826;BMP280;15077;49.704;9.908;2023-05-17T00:06:46;98560.75;;;14.33
27826;BMP280;15077;49.704;9.908;2023-05-17T00:09:12;98555.78;;;14.30
27826;BMP280;15077;49.704;9.908;2023-05-17T00:11:38;98556.75;;;14.28
27826;BMP280;15077;49.704;9.908;2023-05-17T00:14:04;98561.84;;;14.28
27826;BMP280;15077;49.704;9.908;2023-05-17T00:16:31;98557.75;;;14.25
27826;BMP280;15077;49.704;9.908;2023-05-17T00:18:57;98555.25;;;14.24
27826;BMP280;15077;49.704;9.908;2023-05-17T00:21:23;98563.06;;;14.21
27826;BMP280;15077;49.704;9.908;2023-05-17T00:23:48;98564.03;;;14.18
27826;BMP280;15077;49.704;9.908;2023-05-17T00:26:14;98559.00;;;14.17
27826;BMP280;15077;49.704;9.908;2023-05-17T00:28:40;98568.44;;;14.15
27826;BMP280;15077;49.704;9.908;2023-05-17T00:31:06;98566.88;;;14.12
27826;BMP280;15077;49.704;9.908;2023-05-17T00:33:32;98566.94;;;14.11
27826;BMP280;15077;49.704;9.908;2023-05-17T00:35:57;98567.81;;;14.10
27826;BMP280;15077;49.704;9.908;2023-05-17T00:38:23;98579.81;;;14.08
27826;BMP280;15077;49.704;9.908;2023-05-17T00:40:49;98581.63;;;14.06
27826;BMP280;15077;49.704;9.908;2023-05-17T00:43:15;98574.03;;;14.05
27826;BMP280;15077;49.704;9.908;2023-05-17T00:45:41;98579.25;;;14.02
27826;BMP280;15077;49.704;9.908;2023-05-17T00:48:07;98576.78;;;14.00
27826;BMP280;15077;49.704;9.908;2023-05-17T00:50:33;98586.19;;;13.98
27826;BMP280;15077;49.704;9.908;2023-05-17T00:52:59;98582.91;;;13.96
27826;BMP280;15077;49.704;9.908;2023-05-17T00:55:26;98584.78;;;13.93
27826;BMP280;15077;49.704;9.908;2023-05-17T00:57:52;98582.38;;;13.90
27826;BMP280;15077;49.704;9.908;2023-05-17T01:00:19;98588.50;;;13.86
27826;BMP280;15077;49.704;9.908;2023-05-17T01:02:45;98588.72;;;13.81
27826;BMP280;15077;49.704;9.908;2023-05-17T01:05:13;98586.31;;;13.78
27826;BMP280;15077;49.704;9.908;2023-05-17T01:07:40;98599.19;;;13.75
27826;BMP280;15077;49.704;9.908;2023-05-17T01:10:07;98589.19;;;13.71
27826;BMP280;15077;49.704;9.908;2023-05-17T01:15:38;98595.59;;;13.61
27826;BMP280;15077;49.704;9.908;2023-05-17T01:18:37;98595.19;;;13.52
27826;BMP280;15077;49.704;9.908;2023-05-17T01:24:35;98606.72;;;13.40
27826;BMP280;15077;49.704;9.908;2023-05-17T01:27:06;98610.88;;;13.43
27826;BMP280;15077;49.704;9.908;2023-05-17T01:29:36;98611.75;;;13.42
27826;BMP280;15077;49.704;9.908;2023-05-17T01:32:05;98605.00;;;13.41
27826;BMP280;15077;49.704;9.908;2023-05-17T01:34:31;98605.00;;;13.41
27826;BMP280;15077;49.704;9.908;2023-05-17T01:36:57;98605.97;;;13.38
27826;BMP280;15077;49.704;9.908;2023-05-17T01:39:22;98606.88;;;13.37
27826;BMP280;15077;49.704;9.908;2023-05-17T01:42:19;98610.34;;;13.35
27826;BMP280;15077;49.704;9.908;2023-05-17T01:50:24;98607.25;;;13.28
27826;BMP280;15077;49.704;9.908;2023-05-17T01:53:03;98608.88;;;13.29
27826;BMP280;15077;49.704;9.908;2023-05-17T01:55:50;98609.88;;;13.27
27826;BMP280;15077;49.704;9.908;2023-05-17T01:58:19;98609.81;;;13.28
27826;BMP280;15077;49.704;9.908;2023-05-17T02:00:51;98615.72;;;13.29
27826;BMP280;15077;49.704;9.908;2023-05-17T02:03:19;98601.31;;;13.28
27826;BMP280;15077;49.704;9.908;2023-05-17T02:05:45;98603.88;;;13.28
27826;BMP280;15077;49.704;9.908;2023-05-17T02:08:13;98611.50;;;13.28
27826;BMP280;15077;49.704;9.908;2023-05-17T02:10:39;98626.03;;;13.26
27826;BMP280;15077;49.704;9.908;2023-05-17T02:13:05;98620.25;;;13.22
27826;BMP280;15077;49.704;9.908;2023-05-17T02:15:34;98616.84;;;13.22
27826;BMP280;15077;49.704;9.908;2023-05-17T02:17:59;98621.13;;;13.21
27826;BMP280;15077;49.704;9.908;2023-05-17T02:20:25;98631.38;;;13.20
27826;BMP280;15077;49.704;9.908;2023-05-17T02:22:52;98625.47;;;13.19
27826;BMP280;15077;49.704;9.908;2023-05-17T02:25:18;98625.47;;;13.19
27826;BMP280;15077;49.704;9.908;2023-05-17T02:27:44;98637.28;;;13.20
27826;BMP280;15077;49.704;9.908;2023-05-17T02:30:10;98632.19;;;13.20
27826;BMP280;15077;49.704;9.908;2023-05-17T02:32:38;98635.59;;;13.21
27826;BMP280;15077;49.704;9.908;2023-05-17T02:35:05;98642.31;;;13.22
27826;BMP280;15077;49.704;9.908;2023-05-17T02:37:32;98642.31;;;13.22
27826;BMP280;15077;49.704;9.908;2023-05-17T02:39:58;98634.69;;;13.22
27826;BMP280;15077;49.704;9.908;2023-05-17T02:42:24;98642.31;;;13.22
27826;BMP280;15077;49.704;9.908;2023-05-17T02:44:49;98639.75;;;13.22
27826;BMP280;15077;49.704;9.908;2023-05-17T02:47:18;98644.78;;;13.23
27826;BMP280;15077;49.704;9.908;2023-05-17T02:49:46;98634.69;;;13.22
27826;BMP280;15077;49.704;9.908;2023-05-17T02:52:14;98640.63;;;13.22
27826;BMP280;15077;49.704;9.908;2023-05-17T02:54:40;98637.22;;;13.22
27826;BMP280;15077;49.704;9.908;2023-05-17T02:57:08;98642.31;;;13.22
27826;BMP280;15077;49.704;9.908;2023-05-17T02:59:35;98635.66;;;13.19
27826;BMP280;15077;49.704;9.908;2023-05-17T03:02:04;98644.91;;;13.20
27826;BMP280;15077;49.704;9.908;2023-05-17T03:04:31;98648.31;;;13.21
27826;BMP280;15077;49.704;9.908;2023-05-17T03:06:57;98645.00;;;13.19
27826;BMP280;15077;49.704;9.908;2023-05-17T03:09:23;98650.06;;;13.19
27826;BMP280;15077;49.704;9.908;2023-05-17T03:11:50;98652.69;;;13.17
27826;BMP280;15077;49.704;9.908;2023-05-17T03:14:18;98660.38;;;13.16
27826;BMP280;15077;49.704;9.908;2023-05-17T03:16:44;98661.38;;;13.13
27826;BMP280;15077;49.704;9.908;2023-05-17T03:19:10;98663.06;;;13.13
27826;BMP280;15077;49.704;9.908;2023-05-17T03:21:38;98658.03;;;13.11
27826;BMP280;15077;49.704;9.908;2023-05-17T03:24:05;98659.75;;;13.11
27826;BMP280;15077;49.704;9.908;2023-05-17T03:26:31;98652.25;;;13.08
27826;BMP280;15077;49.704;9.908;2023-05-17T03:28:58;98662.44;;;13.08
27826;BMP280;15077;49.704;9.908;2023-05-17T03:31:24;98664.22;;;13.06
27826;BMP280;15077;49.704;9.908;2023-05-17T03:33:50;98671.88;;;13.06
27826;BMP280;15077;49.704;9.908;2023-05-17T03:36:18;98671.09;;;13.04
27826;BMP280;15077;49.704;9.908;2023-05-17T03:38:44;98672.00;;;13.03
27826;BMP280;15077;49.704;9.908;2023-05-17T03:41:14;98677.97;;;13.02
27826;BMP280;15077;49.704;9.908;2023-05-17T03:43:43;98676.16;;;13.04
27826;BMP280;15077;49.704;9.908;2023-05-17T03:46:09;98676.16;;;13.04
27826;BMP280;15077;49.704;9.908;2023-05-17T03:48:35;98678.78;;;13.03
27826;BMP280;15077;49.704;9.908;2023-05-17T03:51:01;98689.00;;;13.01
27826;BMP280;15077;49.704;9.908;2023-05-17T03:53:27;98682.38;;;12.99
27826;BMP280;15077;49.704;9.908;2023-05-17T03:55:53;98684.97;;;12.97
27826;BMP280;15077;49.704;9.908;2023-05-17T03:58:19;98684.97;;;12.97
27826;BMP280;15077;49.704;9.908;2023-05-17T04:00:45;98690.94;;;12.96
27826;BMP280;15077;49.704;9.908;2023-05-17T04:03:11;98697.75;;;12.96
27826;BMP280;15077;49.704;9.908;2023-05-17T04:05:39;98693.47;;;12.96
27826;BMP280;15077;49.704;9.908;2023-05-17T04:08:06;98703.72;;;12.95
27826;BMP280;15077;49.704;9.908;2023-05-17T04:10:31;98698.69;;;12.93
27826;BMP280;15077;49.704;9.908;2023-05-17T04:12:57;98703.78;;;12.93
27826;BMP280;15077;49.704;9.908;2023-05-17T04:15:23;98708.06;;;12.93
27826;BMP280;15077;49.704;9.908;2023-05-17T04:17:49;98705.56;;;12.91
27826;BMP280;15077;49.704;9.908;2023-05-17T04:20:14;98699.63;;;12.91
27826;BMP280;15077;49.704;9.908;2023-05-17T04:22:40;98710.66;;;12.91
27826;BMP280;15077;49.704;9.908;2023-05-17T04:25:06;98704.78;;;12.89
27826;BMP280;15077;49.704;9.908;2023-05-17T04:27:32;98709.00;;;12.90
27826;BMP280;15077;49.704;9.908;2023-05-17T04:29:58;98709.00;;;12.90
27826;BMP280;15077;49.704;9.908;2023-05-17T04:32:24;98710.75;;;12.88
27826;BMP280;15077;49.704;9.908;2023-05-17T04:34:50;98713.22;;;12.90
27826;BMP280;15077;49.704;9.908;2023-05-17T04:37:16;98716.63;;;12.90
27826;BMP280;15077;49.704;9.908;2023-05-17T04:39:42;98711.59;;;12.89
27826;BMP280;15077;49.704;9.908;2023-05-17T04:42:08;98715.84;;;12.88
27826;BMP280;15077;49.704;9.908;2023-05-17T04:44:34;98725.19;;;12.88
27826;BMP280;15077;49.704;9.908;2023-05-17T04:47:00;98713.28;;;12.88
27826;BMP280;15077;49.704;9.908;2023-05-17T04:49:25;98719.22;;;12.89
27826;BMP280;15077;49.704;9.908;2023-05-17T04:51:51;98736.13;;;12.90
27826;BMP280;15077;49.704;9.908;2023-05-17T04:54:17;98740.34;;;12.91
27826;BMP280;15077;49.704;9.908;2023-05-17T04:56:43;98736.97;;;12.90
27826;BMP280;15077;49.704;9.908;2023-05-17T04:59:08;98736.19;;;12.88
27826;BMP280;15077;49.704;9.908;2023-05-17T05:01:34;98731.94;;;12.89
27826;BMP280;15077;49.704;9.908;2023-05-17T05:04:00;98738.69;;;12.90
27826;BMP280;15077;49.704;9.908;2023-05-17T05:06:32;98741.22;;;12.90
27826;BMP280;15077;49.704;9.908;2023-05-17T05:08:59;98747.09;;;12.92
27826;BMP280;15077;49.704;9.908;2023-05-17T05:11:25;98752.13;;;12.93
27826;BMP280;15077;49.704;9.908;2023-05-17T05:13:51;98747.78;;;12.95
27826;BMP280;15077;49.704;9.908;2023-05-17T05:16:16;98762.13;;;12.98
27826;BMP280;15077;49.704;9.908;2023-05-17T05:18:42;98762.81;;;13.01
27826;BMP280;15077;49.704;9.908;2023-05-17T05:21:08;98762.69;;;13.04
27826;BMP280;15077;49.704;9.908;2023-05-17T05:23:33;98763.47;;;13.06
27826;BMP280;15077;49.704;9.908;2023-05-17T05:25:59;98764.13;;;13.11
27826;BMP280;15077;49.704;9.908;2023-05-17T05:28:25;98770.81;;;13.13
27826;BMP280;15077;49.704;9.908;2023-05-17T05:30:59;98775.72;;;13.18
27826;BMP280;15077;49.704;9.908;2023-05-17T05:33:25;98779.03;;;13.20
27826;BMP280;15077;49.704;9.908;2023-05-17T05:35:52;98784.81;;;13.23
27826;BMP280;15077;49.704;9.908;2023-05-17T05:38:18;98790.63;;;13.27
27826;BMP280;15077;49.704;9.908;2023-05-17T05:40:47;98782.78;;;13.31
27826;BMP280;15077;49.704;9.908;2023-05-17T05:43:13;98789.47;;;13.34
27826;BMP280;15077;49.704;9.908;2023-05-17T05:45:39;98782.59;;;13.36
27826;BMP280;15077;49.704;9.908;2023-05-17T05:48:14;98788.34;;;13.41
27826;BMP280;15077;49.704;9.908;2023-05-17T05:50:42;98789.06;;;13.44
27826;BMP280;15077;49.704;9.908;2023-05-17T05:53:09;98794.03;;;13.47
27826;BMP280;15077;49.704;9.908;2023-05-17T05:55:39;98790.44;;;13.51
27826;BMP280;15077;49.704;9.908;2023-05-17T05:58:05;98787.75;;;13.54
27826;BMP280;15077;49.704;9.908;2023-05-17T06:00:31;98796.13;;;13.57
27826;BMP280;15077;49.704;9.908;2023-05-17T06:02:57;98791.72;;;13.61
27826;BMP280;15077;49.704;9.908;2023-05-17T06:05:22;98791.53;;;13.65
27826;BMP280;15077;49.704;9.908;2023-05-17T06:07:48;98795.63;;;13.69
27826;BMP280;15077;49.704;9.908;2023-05-17T06:10:14;98803.88;;;13.74
27826;BMP280;15077;49.704;9.908;2023-05-17T06:12:40;98813.06;;;13.78
27826;BMP280;15077;49.704;9.908;2023-05-17T06:15:06;98812.06;;;13.82
27826;BMP280;15077;49.704;9.908;2023-05-17T06:17:32;98808.47;;;13.86
27826;BMP280;15077;49.704;9.908;2023-05-17T06:19:58;98825.41;;;13.87
27826;BMP280;15077;49.704;9.908;2023-05-17T06:22:24;98818.53;;;13.89
27826;BMP280;15077;49.704;9.908;2023-05-17T06:24:49;98815.91;;;13.91
27826;BMP280;15077;49.704;9.908;2023-05-17T06:27:15;98819.19;;;13.94
27826;BMP280;15077;49.704;9.908;2023-05-17T06:29:41;98830.00;;;13.99
27826;BMP280;15077;49.704;9.908;2023-05-17T06:32:07;98815.38;;;14.03
27826;BMP280;15077;49.704;9.908;2023-05-17T06:34:32;98815.28;;;14.06
27826;BMP280;15077;49.704;9.908;2023-05-17T06:36:58;98827.03;;;14.09
27826;BMP280;15077;49.704;9.908;2023-05-17T06:39:24;98829.38;;;14.14
27826;BMP280;15077;49.704;9.908;2023-05-17T06:41:50;98832.53;;;14.19
27826;BMP280;15077;49.704;9.908;2023-05-17T06:44:16;98827.31;;;14.22
27826;BMP280;15077;49.704;9.908;2023-05-17T06:46:41;98827.03;;;14.28
27826;BMP280;15077;49.704;9.908;2023-05-17T06:49:07;98827.75;;;14.31
27826;BMP280;15077;49.704;9.908;2023-05-17T06:51:33;98828.22;;;14.39
27826;BMP280;15077;49.704;9.908;2023-05-17T06:53:58;98833.97;;;14.44
27826;BMP280;15077;49.704;9.908;2023-05-17T06:56:24;98838.88;;;14.49
27826;BMP280;15077;49.704;9.908;2023-05-17T06:58:50;98834.31;;;14.55
27826;BMP280;15077;49.704;9.908;2023-05-17T07:01:16;98840.09;;;14.58
27826;BMP280;15077;49.704;9.908;2023-05-17T07:03:41;98844.19;;;14.62
27826;BMP280;15077;49.704;9.908;2023-05-17T07:06:07;98855.78;;;14.69
27826;BMP280;15077;49.704;9.908;2023-05-17T07:08:33;98847.91;;;14.74
27826;BMP280;15077;49.704;9.908;2023-05-17T07:10:59;98854.53;;;14.78
27826;BMP280;15077;49.704;9.908;2023-05-17T07:13:25;98852.59;;;14.83
27826;BMP280;15077;49.704;9.908;2023-05-17T07:15:50;98846.53;;;14.85
27826;BMP280;15077;49.704;9.908;2023-05-17T07:18:16;98841.97;;;14.92
27826;BMP280;15077;49.704;9.908;2023-05-17T07:20:42;98852.72;;;14.98
27826;BMP280;15077;49.704;9.908;2023-05-17T07:23:08;98847.31;;;15.04
27826;BMP280;15077;49.704;9.908;2023-05-17T07:25:33;98853.81;;;15.11
27826;BMP280;15077;49.704;9.908;2023-05-17T07:28:03;98849.25;;;15.17
27826;BMP280;15077;49.704;9.908;2023-05-17T07:30:29;98846.44;;;15.23
27826;BMP280;15077;49.704;9.908;2023-05-17T07:32:55;98846.22;;;15.28
27826;BMP280;15077;49.704;9.908;2023-05-17T07:35:21;98852.69;;;15.35
27826;BMP280;15077;49.704;9.908;2023-05-17T07:37:47;98849.84;;;15.41
27826;BMP280;15077;49.704;9.908;2023-05-17T07:40:13;98850.31;;;15.49
27826;BMP280;15077;49.704;9.908;2023-05-17T07:42:39;98850.84;;;15.55
27826;BMP280;15077;49.704;9.908;2023-05-17T07:45:05;98844.53;;;15.62
27826;BMP280;15077;49.704;9.908;2023-05-17T07:47:31;98847.59;;;15.68
27826;BMP280;15077;49.704;9.908;2023-05-17T07:49:56;98838.81;;;15.74
27826;BMP280;15077;49.704;9.908;2023-05-17T07:52:22;98846.19;;;15.80
27826;BMP280;15077;49.704;9.908;2023-05-17T07:54:48;98844.22;;;15.85
27826;BMP280;15077;49.704;9.908;2023-05-17T07:57:15;98850.75;;;15.90
27826;BMP280;15077;49.704;9.908;2023-05-17T07:59:41;98845.41;;;15.95
27826;BMP280;15077;49.704;9.908;2023-05-17T08:02:07;98845.19;;;15.99
27826;BMP280;15077;49.704;9.908;2023-05-17T08:04:32;98845.78;;;16.04
27826;BMP280;15077;49.704;9.908;2023-05-17T08:06:58;98838.78;;;16.07
27826;BMP280;15077;49.704;9.908;2023-05-17T08:09:25;98847.94;;;16.11
27826;BMP280;15077;49.704;9.908;2023-05-17T08:11:51;98835.09;;;16.13
27826;BMP280;15077;49.704;9.908;2023-05-17T08:14:17;98843.53;;;16.15
27826;BMP280;15077;49.704;9.908;2023-05-17T08:16:45;98851.84;;;16.18
27826;BMP280;15077;49.704;9.908;2023-05-17T08:19:13;98842.47;;;16.19
27826;BMP280;15077;49.704;9.908;2023-05-17T08:21:41;98843.22;;;16.21
27826;BMP280;15077;49.704;9.908;2023-05-17T08:24:07;98843.16;;;16.22
27826;BMP280;15077;49.704;9.908;2023-05-17T08:26:34;98843.16;;;16.22
27826;BMP280;15077;49.704;9.908;2023-05-17T08:29:01;98846.47;;;16.24
27826;BMP280;15077;49.704;9.908;2023-05-17T08:31:28;98840.44;;;16.25
27826;BMP280;15077;49.704;9.908;2023-05-17T08:33:53;98850.59;;;16.27
27826;BMP280;15077;49.704;9.908;2023-05-17T08:36:19;98853.91;;;16.29
27826;BMP280;15077;49.704;9.908;2023-05-17T08:38:45;98847.88;;;16.30
27826;BMP280;15077;49.704;9.908;2023-05-17T08:41:12;98848.78;;;16.29
27826;BMP280;15077;49.704;9.908;2023-05-17T08:43:38;98845.41;;;16.28
27826;BMP280;15077;49.704;9.908;2023-05-17T08:46:04;98846.22;;;16.29
27826;BMP280;15077;49.704;9.908;2023-05-17T08:48:32;98849.63;;;16.29
27826;BMP280;15077;49.704;9.908;2023-05-17T08:51:01;98853.00;;;16.30
27826;BMP280;15077;49.704;9.908;2023-05-17T08:53:27;98854.66;;;16.31
27826;BMP280;15077;49.704;9.908;2023-05-17T08:55:58;98857.97;;;16.33
27826;BMP280;15077;49.704;9.908;2023-05-17T08:58:27;98857.06;;;16.34
27826;BMP280;15077;49.704;9.908;2023-05-17T09:00:55;98850.03;;;16.37
27826;BMP280;15077;49.704;9.908;2023-05-17T09:03:22;98855.81;;;16.41
27826;BMP280;15077;49.704;9.908;2023-05-17T09:05:51;98859.16;;;16.43
27826;BMP280;15077;49.704;9.908;2023-05-17T09:08:22;98853.03;;;16.45
27826;BMP280;15077;49.704;9.908;2023-05-17T09:10:48;98857.91;;;16.50
27826;BMP280;15077;49.704;9.908;2023-05-17T09:13:15;98864.59;;;16.52
27826;BMP280;15077;49.704;9.908;2023-05-17T09:15:51;98861.06;;;16.54
27826;BMP280;15077;49.704;9.908;2023-05-17T09:18:31;98859.25;;;16.56
27826;BMP280;15077;49.704;9.908;2023-05-17T09:21:02;98870.22;;;16.58
27826;BMP280;15077;49.704;9.908;2023-05-17T09:23:31;98864.19;;;16.59
27826;BMP280;15077;49.704;9.908;2023-05-17T09:26:06;98863.16;;;16.63
27826;BMP280;15077;49.704;9.908;2023-05-17T09:28:38;98869.75;;;16.67
27826;BMP280;15077;49.704;9.908;2023-05-17T09:31:06;98864.47;;;16.70
27826;BMP280;15077;49.704;9.908;2023-05-17T09:33:34;98867.78;;;16.72
27826;BMP280;15077;49.704;9.908;2023-05-17T09:36:19;98870.91;;;16.77
27826;BMP280;15077;49.704;9.908;2023-05-17T09:38:59;98869.13;;;16.79
27826;BMP280;15077;49.704;9.908;2023-05-17T09:41:29;98877.53;;;16.81
27826;BMP280;15077;49.704;9.908;2023-05-17T09:44:06;98878.19;;;16.85
27826;BMP280;15077;49.704;9.908;2023-05-17T09:46:34;98879.03;;;16.85
27826;BMP280;15077;49.704;9.908;2023-05-17T09:49:01;98883.06;;;16.89
27826;BMP280;15077;49.704;9.908;2023-05-17T09:51:39;98875.97;;;16.94
27826;BMP280;15077;49.704;9.908;2023-05-17T09:54:06;98885.13;;;16.98
27826;BMP280;15077;49.704;9.908;2023-05-17T09:56:34;98872.16;;;17.01
27826;BMP280;15077;49.704;9.908;2023-05-17T09:59:01;98877.88;;;17.06
27826;BMP280;15077;49.704;9.908;2023-05-17T10:01:29;98883.66;;;17.09
27826;BMP280;15077;49.704;9.908;2023-05-17T10:03:59;98886.91;;;17.13
27826;BMP280;15077;49.704;9.908;2023-05-17T10:06:29;98886.72;;;17.16
27826;BMP280;15077;49.704;9.908;2023-05-17T10:09:01;98884.69;;;17.22
27826;BMP280;15077;49.704;9.908;2023-05-17T10:11:29;98890.44;;;17.26
27826;BMP280;15077;49.704;9.908;2023-05-17T10:14:09;98897.97;;;17.29
27826;BMP280;15077;49.704;9.908;2023-05-17T10:16:38;98894.44;;;17.31
27826;BMP280;15077;49.704;9.908;2023-05-17T10:19:04;98901.13;;;17.34
27826;BMP280;15077;49.704;9.908;2023-05-17T10:21:31;98894.19;;;17.36
27826;BMP280;15077;49.704;9.908;2023-05-17T10:24:05;98896.56;;;17.39
27826;BMP280;15077;49.704;9.908;2023-05-17T10:26:32;98904.25;;;17.39
27826;BMP280;15077;49.704;9.908;2023-05-17T10:29:00;98909.38;;;17.39
27826;BMP280;15077;49.704;9.908;2023-05-17T10:31:32;98905.06;;;17.39
27826;BMP280;15077;49.704;9.908;2023-05-17T10:34:00;98902.59;;;17.38
27826;BMP280;15077;49.704;9.908;2023-05-17T10:36:27;98910.38;;;17.36
27826;BMP280;15077;49.704;9.908;2023-05-17T10:38:53;98907.81;;;17.36
27826;BMP280;15077;49.704;9.908;2023-05-17T10:41:24;98901.88;;;17.36
27826;BMP280;15077;49.704;9.908;2023-05-17T10:43:52;98910.28;;;17.38
27826;BMP280;15077;49.704;9.908;2023-05-17T10:46:20;98900.78;;;17.40
27826;BMP280;15077;49.704;9.908;2023-05-17T10:48:52;98901.44;;;17.43
27826;BMP280;15077;49.704;9.908;2023-05-17T10:51:30;98908.16;;;17.46
27826;BMP280;15077;49.704;9.908;2023-05-17T10:54:15;98901.34;;;17.45
27826;BMP280;15077;49.704;9.908;2023-05-17T10:56:49;98886.72;;;17.47
27826;BMP280;15077;49.704;9.908;2023-05-17T10:59:23;98893.41;;;17.49
27826;BMP280;15077;49.704;9.908;2023-05-17T11:02:02;98893.25;;;17.52
27826;BMP280;15077;49.704;9.908;2023-05-17T11:04:42;98898.97;;;17.57
27826;BMP280;15077;49.704;9.908;2023-05-17T11:12:50;98888.53;;;17.60
27826;BMP280;15077;49.704;9.908;2023-05-17T11:15:24;98892.47;;;17.65
27826;BMP280;15077;49.704;9.908;2023-05-17T11:17:52;98884.59;;;17.68
27826;BMP280;15077;49.704;9.908;2023-05-17T11:22:55;98886.91;;;17.73
27826;BMP280;15077;49.704;9.908;2023-05-17T11:25:29;98896.19;;;17.75
27826;BMP280;15077;49.704;9.908;2023-05-17T11:27:57;98891.03;;;17.75
27826;BMP280;15077;49.704;9.908;2023-05-17T11:30:29;98888.31;;;17.78
27826;BMP280;15077;49.704;9.908;2023-05-17T11:32:59;98882.28;;;17.79
27826;BMP280;15077;49.704;9.908;2023-05-17T11:35:36;98881.25;;;17.82
27826;BMP280;15077;49.704;9.908;2023-05-17T11:38:28;98882.28;;;17.79
27826;BMP280;15077;49.704;9.908;2023-05-17T11:40:57;98881.94;;;17.85
27826;BMP280;15077;49.704;9.908;2023-05-17T11:43:25;98891.16;;;17.88
27826;BMP280;15077;49.704;9.908;2023-05-17T11:45:57;98884.22;;;17.90
27826;BMP280;15077;49.704;9.908;2023-05-17T11:48:29;98887.44;;;17.93
27826;BMP280;15077;49.704;9.908;2023-05-17T11:50:56;98873.63;;;17.96
27826;BMP280;15077;49.704;9.908;2023-05-17T11:53:25;98876.09;;;17.97
27826;BMP280;15077;49.704;9.908;2023-05-17T11:55:52;98878.47;;;18.00
27826;BMP280;15077;49.704;9.908;2023-05-17T11:58:25;98869.69;;;18.04
27826;BMP280;15077;49.704;9.908;2023-05-17T12:00:56;98867.78;;;18.07
27826;BMP280;15077;49.704;9.908;2023-05-17T12:03:27;98871.06;;;18.09
27826;BMP280;15077;49.704;9.908;2023-05-17T12:06:09;98866.78;;;18.10
27826;BMP280;15077;49.704;9.908;2023-05-17T12:08:42;98856.91;;;18.18
27826;BMP280;15077;49.704;9.908;2023-05-17T12:11:12;98865.91;;;18.25
27826;BMP280;15077;49.704;9.908;2023-05-17T12:13:39;98864.34;;;18.36
27826;BMP280;15077;49.704;9.908;2023-05-17T12:16:14;98851.06;;;18.44
27826;BMP280;15077;49.704;9.908;2023-05-17T12:18:47;98849.31;;;18.44
27826;BMP280;15077;49.704;9.908;2023-05-17T12:21:13;98853.66;;;18.44
27826;BMP280;15077;49.704;9.908;2023-05-17T12:23:42;98849.22;;;18.46
27826;BMP280;15077;49.704;9.908;2023-05-17T12:26:13;98840.72;;;18.45
27826;BMP280;15077;49.704;9.908;2023-05-17T12:28:57;98840.06;;;18.42
27826;BMP280;15077;49.704;9.908;2023-05-17T12:31:38;98840.81;;;18.44
27826;BMP280;15077;49.704;9.908;2023-05-17T12:34:05;98829.69;;;18.43
27826;BMP280;15077;49.704;9.908;2023-05-17T12:36:32;98830.88;;;18.38
27826;BMP280;15077;49.704;9.908;2023-05-17T12:38:59;98836.19;;;18.35
27826;BMP280;15077;49.704;9.908;2023-05-17T12:41:26;98839.78;;;18.32
27826;BMP280;15077;49.704;9.908;2023-05-17T12:43:52;98838.03;;;18.33
27826;BMP280;15077;49.704;9.908;2023-05-17T12:46:22;98836.00;;;18.38
27826;BMP280;15077;49.704;9.908;2023-05-17T12:48:53;98832.25;;;18.43
27826;BMP280;15077;49.704;9.908;2023-05-17T12:51:22;98831.25;;;18.46
27826;BMP280;15077;49.704;9.908;2023-05-17T12:53:54;98830.97;;;18.50
27826;BMP280;15077;49.704;9.908;2023-05-17T12:56:23;98822.38;;;18.51
27826;BMP280;15077;49.704;9.908;2023-05-17T12:59:17;98829.88;;;18.54
27826;BMP280;15077;49.704;9.908;2023-05-17T13:01:51;98825.00;;;18.63
27826;BMP280;15077;49.704;9.908;2023-05-17T13:04:18;98811.59;;;18.72
27826;BMP280;15077;49.704;9.908;2023-05-17T13:06:54;98825.53;;;18.82
27826;BMP280;15077;49.704;9.908;2023-05-17T13:09:23;98817.88;;;18.95
27826;BMP280;15077;49.704;9.908;2023-05-17T13:12:05;98821.47;;;19.06
27826;BMP280;15077;49.704;9.908;2023-05-17T13:14:58;98825.13;;;19.16
27826;BMP280;15077;49.704;9.908;2023-05-17T13:17:46;98825.25;;;19.27
27826;BMP280;15077;49.704;9.908;2023-05-17T13:20:14;98813.47;;;19.37
27826;BMP280;15077;49.704;9.908;2023-05-17T13:22:45;98810.19;;;19.47
27826;BMP280;15077;49.704;9.908;2023-05-17T13:25:11;98807.03;;;19.56
27826;BMP280;15077;49.704;9.908;2023-05-17T13:27:37;98807.03;;;19.68
27826;BMP280;15077;49.704;9.908;2023-05-17T13:30:03;98805.31;;;19.81
27826;BMP280;15077;49.704;9.908;2023-05-17T13:32:29;98799.38;;;19.93
27826;BMP280;15077;49.704;9.908;2023-05-17T13:34:55;98798.88;;;20.00
27826;BMP280;15077;49.704;9.908;2023-05-17T13:37:21;98806.91;;;20.08
27826;BMP280;15077;49.704;9.908;2023-05-17T13:39:47;98797.44;;;20.09
27826;BMP280;15077;49.704;9.908;2023-05-17T13:42:13;98801.66;;;20.10
27826;BMP280;15077;49.704;9.908;2023-05-17T13:44:39;98789.41;;;20.13
27826;BMP280;15077;49.704;9.908;2023-05-17T13:47:06;98800.31;;;20.17
27826;BMP280;15077;49.704;9.908;2023-05-17T13:49:31;98800.31;;;20.17
27826;BMP280;15077;49.704;9.908;2023-05-17T13:51:57;98790.00;;;20.17
27826;BMP280;15077;49.704;9.908;2023-05-17T13:54:23;98795.06;;;20.18
27826;BMP280;15077;49.704;9.908;2023-05-17T13:56:49;98794.13;;;20.19
27826;BMP280;15077;49.704;9.908;2023-05-17T13:59:14;98790.63;;;20.20
27826;BMP280;15077;49.704;9.908;2023-05-17T14:01:40;98793.94;;;20.22
27826;BMP280;15077;49.704;9.908;2023-05-17T14:04:06;98784.44;;;20.23
27826;BMP280;15077;49.704;9.908;2023-05-17T14:06:32;98796.41;;;20.24
27826;BMP280;15077;49.704;9.908;2023-05-17T14:08:57;98794.75;;;20.23
27826;BMP280;15077;49.704;9.908;2023-05-17T14:11:25;98791.25;;;20.24
27826;BMP280;15077;49.704;9.908;2023-05-17T14:13:50;98800.53;;;20.26
27826;BMP280;15077;49.704;9.908;2023-05-17T14:16:16;98790.94;;;20.28
27826;BMP280;15077;49.704;9.908;2023-05-17T14:18:42;98791.47;;;20.33
27826;BMP280;15077;49.704;9.908;2023-05-17T14:21:08;98790.19;;;20.39
27826;BMP280;15077;49.704;9.908;2023-05-17T14:23:34;98791.63;;;20.43
27826;BMP280;15077;49.704;9.908;2023-05-17T14:26:00;98795.78;;;20.45
27826;BMP280;15077;49.704;9.908;2023-05-17T14:28:29;98787.94;;;20.46
27826;BMP280;15077;49.704;9.908;2023-05-17T14:30:55;98789.56;;;20.47
27826;BMP280;15077;49.704;9.908;2023-05-17T14:33:21;98791.91;;;20.50
27826;BMP280;15077;49.704;9.908;2023-05-17T14:35:46;98781.50;;;20.52